Time;durP1;ratioP1;P1;durP2;ratioP2;P2;SDS_P1;SDS_P2;PMS_P1;PMS_P2;Temp;Humidity;BMP_temperature;BMP_pressure;BME280_temperature;BME280_humidity;BME280_pressure;Samples;Min_cycle;Max_cycle;Signal;HPM_P1;HPM_P2
2020/12/16 00:00:08;;;;;;;21.13;15.03;;;8.80;99.90;;;;;;5018770;28;20927;-61
2020/12/16 00:02:35;;;;;;;20.30;14.50;;;8.80;99.90;;;;;;5018711;28;20465;-67
2020/12/16 00:05:02;;;;;;;20.60;14.70;;;8.70;99.90;;;;;;5018208;28;20555;-66
2020/12/16 00:07:29;;;;;;;21.73;15.37;;;8.80;99.90;;;;;;5018808;28;20523;-67
2020/12/16 00:09:55;;;;;;;20.37;13.80;;;8.80;99.90;;;;;;5018776;28;20499;-60
2020/12/16 00:12:21;;;;;;;18.70;14.10;;;8.80;99.90;;;;;;5018222;28;20484;-64
2020/12/16 00:14:47;;;;;;;22.50;15.37;;;8.80;99.90;;;;;;5018600;28;20460;-61
2020/12/16 00:17:13;;;;;;;25.20;15.47;;;8.80;99.90;;;;;;5019102;28;20531;-61
2020/12/16 00:19:41;;;;;;;22.20;14.63;;;8.80;99.90;;;;;;5018294;28;20467;-63
2020/12/16 00:22:08;;;;;;;20.60;14.83;;;8.80;99.90;;;;;;5017083;28;20997;-60
2020/12/16 00:24:34;;;;;;;21.17;13.90;;;8.80;99.90;;;;;;5019964;28;20488;-60
2020/12/16 00:27:01;;;;;;;19.87;14.73;;;8.80;99.90;;;;;;5019560;28;20468;-61
2020/12/16 00:29:27;;;;;;;22.13;14.70;;;8.80;99.90;;;;;;5019817;28;20472;-61
2020/12/16 00:31:53;;;;;;;22.57;14.33;;;8.90;99.90;;;;;;5019211;28;20457;-60
2020/12/16 00:34:19;;;;;;;24.30;13.43;;;8.90;99.90;;;;;;5019821;28;20461;-66
2020/12/16 00:36:45;;;;;;;18.33;12.90;;;8.90;99.90;;;;;;5019662;28;20457;-66
2020/12/16 00:39:12;;;;;;;19.93;13.83;;;8.90;99.90;;;;;;5020627;28;20498;-60
2020/12/16 00:41:38;;;;;;;19.47;14.20;;;9.00;99.90;;;;;;5020918;28;20931;-67
2020/12/16 00:44:05;;;;;;;19.40;14.13;;;8.90;99.90;;;;;;5021425;28;20457;-66
2020/12/16 00:46:32;;;;;;;20.10;14.30;;;8.90;99.90;;;;;;5022788;28;20802;-66
2020/12/16 00:48:58;;;;;;;21.67;14.50;;;8.90;99.90;;;;;;5026929;28;20471;-66
2020/12/16 00:51:24;;;;;;;22.60;14.90;;;8.90;99.90;;;;;;5028253;28;20460;-67
2020/12/16 00:53:50;;;;;;;19.60;13.50;;;8.90;99.90;;;;;;5028204;28;20519;-60
2020/12/16 00:56:17;;;;;;;20.80;13.87;;;8.90;99.90;;;;;;5022934;28;20468;-60
2020/12/16 00:58:43;;;;;;;18.60;14.43;;;8.90;99.90;;;;;;5025682;28;20457;-61
2020/12/16 01:01:09;;;;;;;21.50;14.20;;;8.90;99.90;;;;;;5021118;28;20513;-61
2020/12/16 01:03:35;;;;;;;23.00;14.23;;;8.90;99.90;;;;;;5022205;28;20468;-60
2020/12/16 01:06:01;;;;;;;21.00;14.70;;;8.90;99.90;;;;;;5021615;28;21036;-60
2020/12/16 01:08:27;;;;;;;23.00;13.83;;;9.00;99.90;;;;;;5018484;28;20845;-60
2020/12/16 01:10:53;;;;;;;21.20;14.90;;;9.00;99.90;;;;;;5018127;28;20453;-61
2020/12/16 01:13:20;;;;;;;17.87;12.93;;;9.00;99.90;;;;;;5018565;28;20780;-60
2020/12/16 01:15:46;;;;;;;19.03;13.10;;;9.00;99.90;;;;;;5018763;28;20468;-60
2020/12/16 01:18:12;;;;;;;18.77;13.63;;;9.00;99.90;;;;;;5020001;28;20527;-59
2020/12/16 01:20:38;;;;;;;21.13;14.47;;;9.10;99.90;;;;;;5019883;28;20453;-67
2020/12/16 01:23:04;;;;;;;19.87;14.77;;;9.10;99.90;;;;;;5022922;28;20464;-66
2020/12/16 01:25:31;;;;;;;18.30;12.97;;;9.10;99.90;;;;;;5022434;28;20453;-60
2020/12/16 01:27:59;;;;;;;23.20;16.07;;;9.20;99.90;;;;;;5025807;28;20456;-67
2020/12/16 01:30:27;;;;;;;21.10;13.30;;;9.20;99.90;;;;;;5020864;28;20453;-67
2020/12/16 01:32:54;;;;;;;19.47;14.10;;;9.10;99.90;;;;;;5017115;28;20448;-66
2020/12/16 01:35:20;;;;;;;19.17;13.67;;;9.20;99.90;;;;;;5016841;28;20460;-60
2020/12/16 01:37:47;;;;;;;22.43;14.20;;;9.20;99.90;;;;;;5016602;28;20452;-67
2020/12/16 01:40:14;;;;;;;20.13;12.90;;;9.20;99.90;;;;;;5016476;28;20457;-61
2020/12/16 01:42:41;;;;;;;21.30;13.77;;;9.20;99.90;;;;;;5016373;28;20792;-61
2020/12/16 01:45:08;;;;;;;20.67;13.80;;;9.20;99.90;;;;;;5016303;28;20850;-61
2020/12/16 01:47:35;;;;;;;26.30;14.43;;;9.20;99.90;;;;;;5016149;28;20457;-61
2020/12/16 01:50:03;;;;;;;21.57;14.40;;;9.30;99.90;;;;;;5016003;28;20460;-61
2020/12/16 01:52:31;;;;;;;19.70;13.53;;;9.30;99.90;;;;;;5016263;28;20457;-60
2020/12/16 01:54:57;;;;;;;19.13;14.60;;;9.30;99.90;;;;;;5016131;28;20831;-60
2020/12/16 01:57:24;;;;;;;19.20;14.20;;;9.30;99.90;;;;;;5016540;28;20845;-60
2020/12/16 01:59:51;;;;;;;21.80;14.50;;;9.40;99.90;;;;;;5016159;28;20461;-66
2020/12/16 02:02:19;;;;;;;20.93;15.30;;;9.30;99.90;;;;;;5015862;28;20485;-65
2020/12/16 02:04:49;;;;;;;24.07;15.47;;;9.30;99.90;;;;;;5015714;28;20489;-66
2020/12/16 02:07:15;;;;;;;21.53;14.70;;;9.30;99.90;;;;;;5016019;28;20499;-67
2020/12/16 02:09:43;;;;;;;19.80;14.77;;;9.30;99.90;;;;;;5015716;28;20471;-67
2020/12/16 02:12:15;;;;;;;24.80;15.50;;;9.30;99.90;;;;;;5015390;28;20960;-66
2020/12/16 02:14:42;;;;;;;23.40;15.40;;;9.40;99.90;;;;;;5015559;28;20900;-67
2020/12/16 02:17:09;;;;;;;21.70;15.07;;;9.40;99.90;;;;;;5015980;28;20495;-67
2020/12/16 02:19:40;;;;;;;22.40;15.87;;;9.40;99.90;;;;;;5015942;28;20472;-67
2020/12/16 02:22:08;;;;;;;21.80;14.50;;;9.30;99.90;;;;;;5015468;28;20946;-68
2020/12/16 02:24:40;;;;;;;24.10;15.77;;;9.30;99.90;;;;;;5015658;28;20468;-67
2020/12/16 02:27:07;;;;;;;23.37;15.30;;;9.40;99.90;;;;;;5015741;28;20476;-67
2020/12/16 02:29:33;;;;;;;24.40;16.67;;;9.40;99.90;;;;;;5015629;28;20467;-67
2020/12/16 02:32:00;;;;;;;23.57;15.23;;;9.40;99.90;;;;;;5015889;28;20456;-66
2020/12/16 02:34:26;;;;;;;23.10;16.93;;;9.40;99.90;;;;;;5015215;28;20554;-67
2020/12/16 02:36:52;;;;;;;22.80;15.37;;;9.50;99.90;;;;;;5015218;28;20472;-67
2020/12/16 02:39:18;;;;;;;24.93;15.50;;;9.50;99.90;;;;;;5015215;28;20522;-67
2020/12/16 02:41:44;;;;;;;26.20;15.03;;;9.50;99.90;;;;;;5015288;28;20508;-67
2020/12/16 02:44:12;;;;;;;26.03;16.30;;;9.50;99.90;;;;;;5015190;28;20465;-67
2020/12/16 02:46:39;;;;;;;26.43;16.10;;;9.60;99.90;;;;;;5014504;28;20457;-66
2020/12/16 02:49:05;;;;;;;24.23;17.20;;;9.60;99.90;;;;;;5015354;28;20456;-66
2020/12/16 02:51:31;;;;;;;27.47;17.97;;;9.60;99.90;;;;;;5015467;28;20465;-66
2020/12/16 02:53:57;;;;;;;28.03;16.57;;;9.60;99.90;;;;;;5015453;28;20518;-66
2020/12/16 02:56:23;;;;;;;31.40;18.87;;;9.60;99.90;;;;;;5015519;28;20485;-66
2020/12/16 02:58:49;;;;;;;27.30;16.87;;;9.60;99.90;;;;;;5015552;28;20490;-67
2020/12/16 03:01:16;;;;;;;28.40;19.60;;;9.60;99.90;;;;;;5015193;28;20477;-66
2020/12/16 03:03:42;;;;;;;29.47;17.73;;;9.60;99.90;;;;;;5015202;28;20461;-67
2020/12/16 03:06:14;;;;;;;27.93;18.37;;;9.60;99.90;;;;;;5015016;28;20484;-66
2020/12/16 03:08:40;;;;;;;31.93;18.10;;;9.60;99.90;;;;;;5015166;28;20607;-67
2020/12/16 03:11:06;;;;;;;31.80;17.97;;;9.60;99.90;;;;;;5015207;28;20492;-67
2020/12/16 03:13:32;;;;;;;28.77;17.20;;;9.60;99.90;;;;;;5015399;28;20840;-68
2020/12/16 03:15:58;;;;;;;29.67;16.50;;;9.60;99.90;;;;;;5015274;28;20465;-67
2020/12/16 03:18:25;;;;;;;30.23;17.87;;;9.60;99.90;;;;;;5015078;28;20515;-66
2020/12/16 03:20:51;;;;;;;27.37;18.47;;;9.50;99.90;;;;;;5014932;28;20483;-60
2020/12/16 03:23:17;;;;;;;27.40;16.23;;;9.50;99.90;;;;;;5014950;28;20480;-60
2020/12/16 03:25:43;;;;;;;28.50;16.50;;;9.50;99.90;;;;;;5014944;28;20798;-60
2020/12/16 03:28:09;;;;;;;29.03;16.60;;;9.50;99.90;;;;;;5014993;28;20460;-66
2020/12/16 03:30:35;;;;;;;29.80;15.60;;;9.50;99.90;;;;;;5015182;28;20457;-60
2020/12/16 03:33:01;;;;;;;31.43;16.43;;;9.60;99.90;;;;;;5014719;28;20473;-60
2020/12/16 03:35:28;;;;;;;28.80;17.07;;;9.60;99.90;;;;;;5014927;28;20832;-59
2020/12/16 03:37:54;;;;;;;30.97;17.57;;;9.60;99.90;;;;;;5014736;28;20471;-61
2020/12/16 03:40:20;;;;;;;35.63;17.20;;;9.60;99.90;;;;;;5014870;28;20452;-62
2020/12/16 03:42:46;;;;;;;28.27;17.47;;;9.60;99.90;;;;;;5014605;28;20527;-60
2020/12/16 03:45:13;;;;;;;27.67;16.70;;;9.50;99.90;;;;;;5014617;28;20914;-61
2020/12/16 03:47:39;;;;;;;32.83;17.43;;;9.50;99.90;;;;;;5014959;28;20452;-60
2020/12/16 03:50:05;;;;;;;30.93;16.53;;;9.50;99.90;;;;;;5015257;28;20461;-60
2020/12/16 03:52:32;;;;;;;36.67;19.30;;;9.50;99.90;;;;;;5014892;28;20457;-59
2020/12/16 03:54:58;;;;;;;33.20;18.23;;;9.50;99.90;;;;;;5014673;28;20809;-66
2020/12/16 03:57:24;;;;;;;44.43;18.70;;;9.50;99.90;;;;;;5016007;28;20952;-66
2020/12/16 03:59:51;;;;;;;35.00;18.40;;;9.60;99.90;;;;;;5018502;28;20961;-61
2020/12/16 04:02:17;;;;;;;33.97;18.13;;;9.60;99.90;;;;;;5017929;28;20476;-60
2020/12/16 04:04:43;;;;;;;34.87;17.87;;;9.60;99.90;;;;;;5017960;28;20460;-60
2020/12/16 04:07:09;;;;;;;34.90;18.17;;;9.70;99.90;;;;;;5018044;28;20475;-60
2020/12/16 04:09:36;;;;;;;33.40;18.47;;;9.60;99.90;;;;;;5017560;28;20457;-60
2020/12/16 04:12:02;;;;;;;36.53;19.50;;;9.60;99.90;;;;;;5017955;28;20846;-67
2020/12/16 04:14:28;;;;;;;38.57;18.30;;;9.60;99.90;;;;;;5017895;28;20457;-66
2020/12/16 04:16:56;;;;;;;39.50;19.20;;;9.60;99.90;;;;;;5017792;28;20493;-60
2020/12/16 04:19:22;;;;;;;34.37;18.17;;;9.60;99.90;;;;;;5018053;28;20552;-60
2020/12/16 04:21:48;;;;;;;34.97;18.23;;;9.70;99.90;;;;;;5017996;28;20509;-60
2020/12/16 04:24:14;;;;;;;29.13;17.00;;;9.70;99.90;;;;;;5017637;28;20456;-60
2020/12/16 04:26:41;;;;;;;27.37;17.27;;;9.70;99.90;;;;;;5017439;28;20461;-67
2020/12/16 04:29:07;;;;;;;31.73;19.10;;;9.70;99.90;;;;;;5017860;28;20495;-67
2020/12/16 04:31:33;;;;;;;35.30;17.60;;;9.70;99.90;;;;;;5017379;28;20489;-60
2020/12/16 04:33:59;;;;;;;29.77;17.37;;;9.70;99.90;;;;;;5017638;28;20503;-60
2020/12/16 04:36:25;;;;;;;34.40;18.70;;;9.70;99.90;;;;;;5017429;28;20518;-60
2020/12/16 04:38:52;;;;;;;36.43;18.50;;;9.70;99.90;;;;;;5017482;28;20763;-66
2020/12/16 04:41:18;;;;;;;32.07;19.63;;;9.60;99.90;;;;;;5017450;28;20480;-66
2020/12/16 04:43:46;;;;;;;37.97;20.90;;;9.60;99.90;;;;;;5017355;28;20495;-66
2020/12/16 04:46:14;;;;;;;32.37;18.17;;;9.60;99.90;;;;;;5017039;28;20493;-67
2020/12/16 04:48:44;;;;;;;42.07;21.13;;;9.60;99.90;;;;;;5016868;28;20461;-67
2020/12/16 04:51:11;;;;;;;37.50;20.67;;;9.60;99.90;;;;;;5017268;28;20853;-66
2020/12/16 04:53:37;;;;;;;35.97;19.73;;;9.60;99.90;;;;;;5017286;28;20523;-67
2020/12/16 04:56:03;;;;;;;36.90;18.90;;;9.60;99.90;;;;;;5016954;28;20472;-66
2020/12/16 04:58:30;;;;;;;38.07;19.83;;;9.60;99.90;;;;;;5016786;28;20549;-66
2020/12/16 05:00:58;;;;;;;40.37;20.43;;;9.60;99.90;;;;;;5017257;28;20457;-66
2020/12/16 05:03:25;;;;;;;35.00;18.83;;;9.60;99.90;;;;;;5017037;28;20798;-67
2020/12/16 05:05:51;;;;;;;40.77;19.60;;;9.50;99.90;;;;;;5017027;28;20484;-67
2020/12/16 05:08:17;;;;;;;37.37;18.47;;;9.60;99.90;;;;;;5017025;28;20468;-67
2020/12/16 05:10:45;;;;;;;29.63;17.60;;;9.60;99.90;;;;;;5016815;28;20917;-60
2020/12/16 05:13:13;;;;;;;30.87;17.60;;;9.60;99.90;;;;;;5016919;28;20511;-60
2020/12/16 05:15:41;;;;;;;33.97;17.93;;;9.60;99.90;;;;;;5017107;28;20461;-60
2020/12/16 05:18:11;;;;;;;31.20;17.90;;;9.60;99.90;;;;;;5017280;28;20793;-67
2020/12/16 05:20:39;;;;;;;35.90;19.70;;;9.60;99.90;;;;;;5019231;28;20457;-66
2020/12/16 05:23:06;;;;;;;34.97;18.83;;;9.60;99.90;;;;;;5021736;28;20492;-66
2020/12/16 05:25:33;;;;;;;34.50;18.33;;;9.60;99.90;;;;;;5019544;28;20511;-63
2020/12/16 05:27:59;;;;;;;33.30;17.93;;;9.50;99.90;;;;;;5018669;28;20457;-66
2020/12/16 05:30:25;;;;;;;33.97;18.60;;;9.60;99.90;;;;;;5018160;28;20524;-60
2020/12/16 05:32:52;;;;;;;29.40;17.63;;;9.60;99.90;;;;;;5017268;28;20605;-60
2020/12/16 05:35:27;;;;;;;35.57;19.23;;;9.60;99.90;;;;;;5018329;28;20457;-60
2020/12/16 05:38:04;;;;;;;33.70;18.70;;;9.60;99.90;;;;;;5017306;28;20755;-61
2020/12/16 05:40:31;;;;;;;29.67;18.67;;;9.70;99.90;;;;;;5016308;28;20456;-61
2020/12/16 05:42:58;;;;;;;32.80;18.10;;;9.70;99.90;;;;;;5016421;28;20888;-67
2020/12/16 05:45:25;;;;;;;28.90;17.63;;;9.60;99.90;;;;;;5016131;28;20496;-60
2020/12/16 05:48:00;;;;;;;34.23;17.60;;;9.60;99.90;;;;;;5016110;28;20790;-60
2020/12/16 05:50:31;;;;;;;33.53;17.17;;;9.60;99.90;;;;;;5016871;28;20558;-60
2020/12/16 05:53:12;;;;;;;33.30;19.03;;;9.60;99.90;;;;;;5015682;28;20442;-67
2020/12/16 05:55:38;;;;;;;30.03;17.77;;;9.70;99.90;;;;;;5015944;28;20441;-66
2020/12/16 05:58:07;;;;;;;33.10;16.87;;;9.70;99.90;;;;;;5015759;28;20527;-66
2020/12/16 06:00:49;;;;;;;34.10;18.40;;;9.70;99.90;;;;;;5016066;28;20504;-65
2020/12/16 06:03:17;;;;;;;30.00;16.53;;;9.70;99.90;;;;;;5015927;28;20501;-60
2020/12/16 06:05:47;;;;;;;32.40;19.90;;;9.70;99.90;;;;;;5015325;28;20992;-60
2020/12/16 06:08:13;;;;;;;38.90;19.63;;;9.60;99.90;;;;;;5015763;28;20538;-60
2020/12/16 06:10:44;;;;;;;33.83;18.97;;;9.60;99.90;;;;;;5015865;28;20469;-60
2020/12/16 06:13:13;;;;;;;35.63;19.40;;;9.70;99.90;;;;;;5015542;28;20472;-67
2020/12/16 06:15:52;;;;;;;29.57;16.70;;;9.70;99.90;;;;;;5015835;28;20456;-67
2020/12/16 06:18:19;;;;;;;33.30;17.60;;;9.70;99.90;;;;;;5015706;28;20445;-67
2020/12/16 06:20:47;;;;;;;38.13;18.17;;;9.70;99.90;;;;;;5015308;28;20457;-67
2020/12/16 06:23:21;;;;;;;26.87;16.83;;;9.70;99.90;;;;;;5016282;28;20499;-67
2020/12/16 06:25:49;;;;;;;31.80;17.23;;;9.70;99.90;;;;;;5015727;28;20441;-68
2020/12/16 06:28:15;;;;;;;35.20;17.03;;;9.70;99.90;;;;;;5015892;28;20457;-67
2020/12/16 06:30:51;;;;;;;29.67;17.47;;;9.80;99.90;;;;;;5015496;28;20466;-66
2020/12/16 06:33:26;;;;;;;32.97;17.47;;;9.80;99.90;;;;;;5015585;28;20503;-67
2020/12/16 06:35:59;;;;;;;32.30;17.50;;;9.80;99.90;;;;;;5015607;28;20780;-67
2020/12/16 06:38:25;;;;;;;32.57;18.27;;;9.80;99.90;;;;;;5015193;28;20477;-67
2020/12/16 06:40:53;;;;;;;29.97;16.73;;;9.80;99.90;;;;;;5016104;28;20441;-67
2020/12/16 06:43:39;;;;;;;34.60;17.47;;;9.70;99.90;;;;;;5015284;28;20546;-60
2020/12/16 06:46:46;;;;;;;33.43;17.17;;;9.80;99.90;;;;;;5015415;28;20519;-61
2020/12/16 06:49:41;;;;;;;32.70;17.50;;;9.80;99.90;;;;;;5016434;28;20467;-60
2020/12/16 06:52:11;;;;;;;30.40;17.13;;;9.80;99.90;;;;;;5016692;28;20806;-61
2020/12/16 06:54:41;;;;;;;28.60;18.37;;;9.80;99.90;;;;;;5015697;28;20980;-60
2020/12/16 06:57:15;;;;;;;30.60;16.87;;;9.90;99.90;;;;;;5015217;28;20471;-67
2020/12/16 06:59:46;;;;;;;30.57;17.13;;;9.90;99.90;;;;;;5015258;28;20902;-67
2020/12/16 07:02:14;;;;;;;31.80;16.70;;;9.90;99.90;;;;;;5014945;28;20484;-67
2020/12/16 07:04:40;;;;;;;29.43;18.07;;;9.90;99.90;;;;;;5014820;28;20464;-66
2020/12/16 07:07:07;;;;;;;34.43;17.77;;;10.00;99.90;;;;;;5015079;28;20492;-68
2020/12/16 07:09:34;;;;;;;30.77;18.07;;;10.00;99.90;;;;;;5015738;28;20457;-67
2020/12/16 07:12:01;;;;;;;29.93;16.60;;;10.00;99.90;;;;;;5015398;28;20489;-67
2020/12/16 07:14:34;;;;;;;35.33;18.43;;;10.00;99.90;;;;;;5015028;28;20464;-60
2020/12/16 07:17:07;;;;;;;34.83;18.33;;;10.00;99.90;;;;;;5016638;28;20990;-66
2020/12/16 07:19:34;;;;;;;34.97;17.10;;;10.00;99.90;;;;;;5016234;28;20488;-67
2020/12/16 07:22:16;;;;;;;33.67;18.43;;;10.00;99.90;;;;;;5016857;28;20473;-68
2020/12/16 07:24:48;;;;;;;32.17;17.53;;;10.10;99.90;;;;;;5015333;28;20445;-66
2020/12/16 07:27:18;;;;;;;29.50;18.43;;;10.10;99.90;;;;;;5015122;28;20441;-67
2020/12/16 07:29:53;;;;;;;30.33;16.47;;;10.10;99.90;;;;;;5014901;28;20441;-60
2020/12/16 07:32:21;;;;;;;29.53;17.60;;;10.10;99.90;;;;;;5017649;28;20440;-60
2020/12/16 07:34:48;;;;;;;28.57;17.00;;;10.10;99.90;;;;;;5018710;28;20934;-61
2020/12/16 07:37:17;;;;;;;28.23;16.87;;;10.10;99.90;;;;;;5018734;28;20468;-59
2020/12/16 07:39:49;;;;;;;30.40;17.90;;;10.20;99.90;;;;;;5018613;28;20461;-60
2020/12/16 07:42:20;;;;;;;29.37;16.27;;;10.20;99.90;;;;;;5018233;28;20563;-60
2020/12/16 07:44:46;;;;;;;27.80;16.43;;;10.20;99.90;;;;;;5018400;28;20464;-60
2020/12/16 07:47:12;;;;;;;28.73;16.97;;;10.20;99.90;;;;;;5018810;28;20833;-60
2020/12/16 07:49:39;;;;;;;29.97;17.33;;;10.30;99.90;;;;;;5019305;28;20518;-60
2020/12/16 07:52:05;;;;;;;23.40;15.70;;;10.30;99.90;;;;;;5018522;28;20587;-60
2020/12/16 07:54:32;;;;;;;27.43;16.70;;;10.30;99.90;;;;;;5018207;28;20488;-60
2020/12/16 07:56:59;;;;;;;27.13;16.37;;;10.30;99.90;;;;;;5018939;28;20783;-60
2020/12/16 07:59:28;;;;;;;29.17;17.23;;;10.40;99.90;;;;;;5018366;28;20492;-61
2020/12/16 08:02:03;;;;;;;25.77;16.00;;;10.40;99.90;;;;;;5018055;28;20508;-61
2020/12/16 08:04:29;;;;;;;29.83;17.60;;;10.40;99.90;;;;;;5018180;28;20456;-66
2020/12/16 08:06:55;;;;;;;30.17;17.73;;;10.40;99.90;;;;;;5017830;28;20570;-67
2020/12/16 08:09:22;;;;;;;28.47;17.63;;;10.40;99.90;;;;;;5018482;28;20457;-67
2020/12/16 08:11:48;;;;;;;32.93;19.30;;;10.40;99.90;;;;;;5018893;28;20449;-67
2020/12/16 08:14:15;;;;;;;36.17;21.00;;;10.50;99.90;;;;;;5018915;28;20910;-67
2020/12/16 08:16:45;;;;;;;29.30;16.77;;;10.50;99.90;;;;;;5020123;28;20849;-60
2020/12/16 08:19:18;;;;;;;31.10;16.97;;;10.50;99.90;;;;;;5019420;28;20496;-67
2020/12/16 08:21:49;;;;;;;24.60;15.23;;;10.60;99.90;;;;;;5018611;28;20934;-67
2020/12/16 08:24:15;;;;;;;25.07;15.83;;;10.60;99.90;;;;;;5018464;28;20873;-67
2020/12/16 08:26:41;;;;;;;27.47;16.43;;;10.60;99.90;;;;;;5018621;28;20499;-62
2020/12/16 08:29:07;;;;;;;27.90;16.90;;;10.60;99.90;;;;;;5018798;28;20461;-61
2020/12/16 08:31:34;;;;;;;25.63;15.27;;;10.70;99.90;;;;;;5017874;28;20906;-61
2020/12/16 08:34:02;;;;;;;26.77;16.87;;;10.70;99.90;;;;;;5018244;28;20832;-61
2020/12/16 08:36:31;;;;;;;25.90;16.93;;;10.70;99.90;;;;;;5018261;28;20461;-61
2020/12/16 08:39:05;;;;;;;23.27;15.13;;;10.80;99.90;;;;;;5018916;28;20542;-61
2020/12/16 08:41:35;;;;;;;26.67;15.80;;;10.80;99.90;;;;;;5018445;28;20855;-61
2020/12/16 08:44:01;;;;;;;23.93;15.20;;;10.90;99.90;;;;;;5016693;28;20956;-59
2020/12/16 08:46:27;;;;;;;20.90;14.63;;;10.90;99.90;;;;;;5017082;28;20492;-60
2020/12/16 08:48:59;;;;;;;21.87;14.23;;;10.90;99.90;;;;;;5017153;28;20471;-60
2020/12/16 08:51:32;;;;;;;25.77;15.43;;;10.90;99.90;;;;;;5017396;28;20445;-59
2020/12/16 08:54:00;;;;;;;28.23;17.20;;;10.90;99.90;;;;;;5017127;28;20446;-60
2020/12/16 08:56:32;;;;;;;22.47;14.37;;;10.90;99.90;;;;;;5017144;28;20457;-60
2020/12/16 08:59:13;;;;;;;25.10;15.00;;;10.90;99.90;;;;;;5017528;28;20864;-60
2020/12/16 09:01:41;;;;;;;30.13;15.73;;;11.00;99.90;;;;;;5019549;28;20481;-59
2020/12/16 09:04:08;;;;;;;28.07;15.90;;;11.00;99.90;;;;;;5017177;28;20472;-61
2020/12/16 09:06:35;;;;;;;23.50;14.83;;;11.00;99.90;;;;;;5017129;28;20596;-61
2020/12/16 09:09:12;;;;;;;22.30;13.70;;;11.00;99.90;;;;;;5016870;28;20523;-63
2020/12/16 09:11:38;;;;;;;18.97;13.93;;;11.00;99.90;;;;;;5017482;28;20444;-60
2020/12/16 09:14:04;;;;;;;22.30;15.40;;;11.00;99.90;;;;;;5018267;28;20457;-61
2020/12/16 09:16:30;;;;;;;25.57;16.30;;;11.00;99.90;;;;;;5019098;28;20457;-61
2020/12/16 09:18:56;;;;;;;25.07;16.20;;;11.00;99.90;;;;;;5017282;28;20471;-60
2020/12/16 09:21:35;;;;;;;20.10;13.33;;;11.10;99.90;;;;;;5016636;28;20953;-60
2020/12/16 09:24:05;;;;;;;19.00;11.20;;;11.10;99.90;;;;;;5017012;28;20457;-60
2020/12/16 09:26:39;;;;;;;12.50;9.30;;;11.10;99.90;;;;;;5017439;28;20798;-67
2020/12/16 09:29:25;;;;;;;17.50;9.90;;;11.10;99.90;;;;;;5016939;28;20441;-67
2020/12/16 09:31:57;;;;;;;12.47;9.43;;;11.20;99.90;;;;;;5017132;28;20503;-60
2020/12/16 09:34:34;;;;;;;13.80;9.67;;;11.20;99.90;;;;;;5016499;28;20452;-60
2020/12/16 09:37:11;;;;;;;14.77;9.63;;;11.20;99.90;;;;;;5017853;28;20535;-60
2020/12/16 09:39:37;;;;;;;9.20;7.73;;;11.20;99.90;;;;;;5016777;28;20522;-67
2020/12/16 09:42:08;;;;;;;9.90;7.93;;;11.20;99.90;;;;;;5017207;28;20517;-66
2020/12/16 09:44:34;;;;;;;9.43;7.43;;;11.30;99.90;;;;;;5017307;28;20445;-60
2020/12/16 09:47:16;;;;;;;8.90;6.60;;;11.30;99.90;;;;;;5017259;28;20468;-60
2020/12/16 09:49:44;;;;;;;9.23;7.53;;;11.30;99.90;;;;;;5017078;28;20794;-59
2020/12/16 09:52:30;;;;;;;7.50;6.13;;;11.30;99.90;;;;;;5017555;28;20461;-61
2020/12/16 09:54:57;;;;;;;6.70;5.40;;;11.40;99.90;;;;;;5016646;28;20455;-60
2020/12/16 09:57:23;;;;;;;8.70;5.80;;;11.40;99.90;;;;;;5016175;28;20514;-60
2020/12/16 09:59:50;;;;;;;8.27;6.07;;;11.40;99.90;;;;;;5015987;28;20456;-60
2020/12/16 10:02:17;;;;;;;6.40;5.70;;;11.40;99.90;;;;;;5015780;28;20517;-61
2020/12/16 10:04:43;;;;;;;7.60;5.10;;;11.50;99.90;;;;;;5016318;28;20465;-59
2020/12/16 10:07:09;;;;;;;8.23;6.50;;;11.50;99.90;;;;;;5017024;28;20473;-60
2020/12/16 10:09:38;;;;;;;8.23;6.40;;;11.50;99.90;;;;;;5016198;28;20485;-60
2020/12/16 10:12:04;;;;;;;7.37;5.63;;;11.60;99.90;;;;;;5016836;28;20463;-67
2020/12/16 10:14:30;;;;;;;6.50;5.23;;;11.70;99.90;;;;;;5016210;28;20831;-67
2020/12/16 10:16:57;;;;;;;5.47;4.97;;;11.70;99.90;;;;;;5018701;28;20465;-60
2020/12/16 10:19:23;;;;;;;5.90;5.23;;;11.80;99.90;;;;;;5016381;28;20472;-60
2020/12/16 10:21:50;;;;;;;6.40;5.40;;;11.80;99.90;;;;;;5015448;28;20481;-60
2020/12/16 10:24:17;;;;;;;6.40;4.97;;;11.80;99.90;;;;;;5015463;28;20825;-60
2020/12/16 10:26:47;;;;;;;6.87;5.20;;;11.90;99.90;;;;;;5015317;28;20461;-60
2020/12/16 10:29:16;;;;;;;6.70;5.63;;;11.90;99.90;;;;;;5015588;28;20460;-59
2020/12/16 10:31:46;;;;;;;9.73;6.43;;;12.00;99.90;;;;;;5016102;28;20461;-60
2020/12/16 10:34:12;;;;;;;8.97;6.90;;;12.00;99.90;;;;;;5016381;28;20445;-60
2020/12/16 10:36:38;;;;;;;9.60;7.20;;;12.00;99.90;;;;;;5015561;28;20461;-71
2020/12/16 10:39:05;;;;;;;8.53;6.70;;;12.00;99.90;;;;;;5015451;28;20937;-67
2020/12/16 10:41:31;;;;;;;10.63;6.77;;;12.00;99.90;;;;;;5015285;28;20484;-68
2020/12/16 10:43:57;;;;;;;8.50;6.97;;;12.10;99.90;;;;;;5015299;28;20519;-68
2020/12/16 10:46:24;;;;;;;11.35;8.40;;;12.10;99.90;;;;;;5015215;28;20478;-69
2020/12/16 10:48:50;;;;;;;9.80;7.40;;;12.10;99.90;;;;;;5014988;28;20655;-68
2020/12/16 10:51:16;;;;;;;9.90;7.70;;;12.10;99.90;;;;;;5015356;28;20504;-60
2020/12/16 10:53:43;;;;;;;10.53;8.00;;;12.10;99.90;;;;;;5015259;28;20457;-61
2020/12/16 10:56:09;;;;;;;10.53;7.73;;;12.10;99.90;;;;;;5015402;28;20472;-61
2020/12/16 10:58:36;;;;;;;12.20;9.10;;;12.10;99.90;;;;;;5015209;28;20465;-60
2020/12/16 11:01:02;;;;;;;14.87;9.50;;;12.10;99.90;;;;;;5015398;28;20504;-67
2020/12/16 11:03:28;;;;;;;15.47;9.73;;;12.20;99.90;;;;;;5015794;28;20811;-67
2020/12/16 11:05:55;;;;;;;15.63;10.40;;;12.10;99.90;;;;;;5015237;28;20578;-67
2020/12/16 11:08:21;;;;;;;16.50;11.43;;;12.10;99.90;;;;;;5019630;28;20484;-68
2020/12/16 11:10:51;;;;;;;17.33;11.83;;;12.10;99.90;;;;;;5019380;28;20484;-61
2020/12/16 11:13:17;;;;;;;20.10;12.50;;;12.10;99.90;;;;;;5019117;28;20452;-68
2020/12/16 11:15:44;;;;;;;18.87;12.93;;;12.10;99.90;;;;;;5019851;28;20472;-60
2020/12/16 11:18:10;;;;;;;17.40;12.43;;;12.10;99.90;;;;;;5019209;28;20491;-60
2020/12/16 11:20:36;;;;;;;21.87;12.87;;;12.10;99.90;;;;;;5019226;28;20534;-68
2020/12/16 11:23:02;;;;;;;16.00;11.23;;;12.10;99.90;;;;;;5019351;28;20492;-68
2020/12/16 11:25:29;;;;;;;15.97;10.43;;;12.10;99.90;;;;;;5019658;28;20496;-68
2020/12/16 11:27:55;;;;;;;12.87;9.80;;;12.10;99.90;;;;;;5019599;28;20472;-69
2020/12/16 11:30:21;;;;;;;13.87;10.57;;;12.10;99.90;;;;;;5019266;28;20456;-69
2020/12/16 11:32:48;;;;;;;13.50;9.97;;;12.10;99.90;;;;;;5019139;28;20464;-68
2020/12/16 11:35:14;;;;;;;12.83;10.37;;;12.10;99.90;;;;;;5018700;28;20457;-69
2020/12/16 11:37:44;;;;;;;15.23;10.10;;;12.10;99.90;;;;;;5018756;28;20496;-69
2020/12/16 11:40:10;;;;;;;13.50;9.40;;;12.00;99.90;;;;;;5018133;28;20459;-68
2020/12/16 11:42:36;;;;;;;16.03;10.27;;;12.00;99.90;;;;;;5018596;28;20477;-68
2020/12/16 11:45:03;;;;;;;18.20;10.30;;;12.00;99.90;;;;;;5018954;28;20775;-67
2020/12/16 11:47:29;;;;;;;16.30;11.50;;;12.00;99.90;;;;;;5018662;28;20477;-68
2020/12/16 11:49:56;;;;;;;16.50;10.00;;;11.90;99.90;;;;;;5020756;28;20519;-69
2020/12/16 11:52:22;;;;;;;13.93;9.37;;;11.90;99.90;;;;;;5018594;28;20788;-68
2020/12/16 11:54:53;;;;;;;13.07;9.10;;;11.90;99.90;;;;;;5018841;28;20456;-68
2020/12/16 11:57:22;;;;;;;15.93;10.83;;;11.90;99.90;;;;;;5020817;28;20449;-67
2020/12/16 11:59:49;;;;;;;12.80;9.80;;;12.00;99.90;;;;;;5020099;28;20773;-67
2020/12/16 12:02:15;;;;;;;13.07;9.37;;;12.00;99.90;;;;;;5019873;28;20477;-68
2020/12/16 12:04:44;;;;;;;13.93;8.90;;;12.00;99.90;;;;;;5019549;28;20464;-67
2020/12/16 12:07:11;;;;;;;12.87;8.87;;;12.00;99.90;;;;;;5017814;28;20445;-68
2020/12/16 12:09:37;;;;;;;12.13;8.53;;;12.00;99.90;;;;;;5017876;28;20491;-67
2020/12/16 12:12:03;;;;;;;17.27;10.93;;;12.00;99.90;;;;;;5017676;28;20453;-68
2020/12/16 12:14:30;;;;;;;16.20;11.13;;;12.00;99.90;;;;;;5018125;28;20456;-68
2020/12/16 12:16:57;;;;;;;19.17;11.63;;;12.00;99.90;;;;;;5017846;28;20541;-69
2020/12/16 12:19:23;;;;;;;16.20;11.40;;;12.00;99.90;;;;;;5016998;28;20472;-69
2020/12/16 12:21:50;;;;;;;16.90;11.60;;;12.00;99.90;;;;;;5017742;28;20518;-68
2020/12/16 12:24:17;;;;;;;19.37;12.87;;;12.00;99.90;;;;;;5017609;28;20842;-69
2020/12/16 12:26:43;;;;;;;15.90;11.50;;;12.00;99.90;;;;;;5017611;28;20461;-69
2020/12/16 12:29:09;;;;;;;20.77;12.87;;;12.00;99.90;;;;;;5017398;28;20805;-69
2020/12/16 12:31:35;;;;;;;17.73;12.57;;;11.90;99.90;;;;;;5017591;28;20791;-69
2020/12/16 12:34:01;;;;;;;18.57;12.20;;;11.90;99.90;;;;;;5017253;28;20491;-69
2020/12/16 12:36:27;;;;;;;21.33;13.57;;;11.90;99.90;;;;;;5018484;28;20781;-70
2020/12/16 12:38:54;;;;;;;20.13;12.50;;;11.90;99.90;;;;;;5021345;28;20449;-68